CYQH

Watson Lake Airport

Watson Lake, , Canada
METAR CYQH 152200Z 25006KT 220V290 30SM FEW030TCU OVC085 17/03 A2994 RMK TCU2AC6 SLP150 DENSITY ALT 3000FT
Observed Flight Rules
Aug-15 @ 22:00 UTC (28 minutes ago) Visual Flight Rules
Wind Visibility Clouds
250° at 6 knots 30 miles
  • Few at 3,000' AGL
  • Overcast at 8,500' AGL
Temperatures Readings
Current 17°C / 63°F
Dewpoint 3°C / 37°F
Humidity 39%
Altimeter 29.94" Hg
Pressure 1015 hPa
Elevation 690
METAR CYQH 152200Z 25006KT 220V290 30SM FEW030TCU OVC085 17/03 A2994 RMK TCU2AC6 SLP150 DENSITY ALT 3000FT
Observed Flight Rules
Aug-15 @ 22:00 UTC
(28 minutes ago)
VFR
Wind Visibility
250° at 6 knots 30 miles
Clouds
  • Few at 3,000' AGL
  • Overcast at 8,500' AGL
Temperature Dewpoint
17°C / 63°F 3°C / 37°F
Humidity Altimeter Pressure
39% 29.94" Hg 1015 hPa